Acton, CA (93510)

5:22 PM PST on February 05, 2016 (GMT -0800)
Bridle Path | | Change Station
CLOSE
Current Station
Personal Weather Station
Location: Acton, CA
Elevation: 2920 ft
Nearby Weather Stations
Active Advisory: Wind Advisory

Elev 2920 ft 34.48 °N, 118.17 °W | Updated 24 seconds ago

Clear
Clear
55.6 °F
Feels Like 55.6 °F
N
7.0
Wind Variable Wind from ENE
Gusts 14.0 mph

Today
High -- | Low -- °F
--% Chance of Precip.
Yesterday
High -- | Low -- °F
Precip. -- in
Pressure 30.39 in
Visibility 10.0 miles
Clouds Clear
Dew Point 14 °F
Humidity 19%
Rainfall 0.00 in
Snow Depth Not available.
6:47 AM 5:26 PM
Waning Crescent, 8% visible
METAR KPMD 060053Z AUTO 07010KT 10SM CLR 14/M07 A3038 RMK AO2 SLP291 T01441067
Pressure 30.39 in
Visibility 10.0 miles
Clouds Clear
Dew Point 14 °F
Humidity 19%
Rainfall 0.00 in
Snow Depth Not available.
6:47 AM 5:26 PM
Waning Crescent, 8% visible
METAR KPMD 060053Z AUTO 07010KT 10SM CLR 14/M07 A3038 RMK AO2 SLP291 T01441067

10-Day Weather Forecast

Almanac

Astronomy

Feb. 05, 2016 Rise Set
Actual Time
Civil Twilight
Nautical Twilight
Astronomical Twilight
Moon
Length of Visible Light
Length of Day
Tomorrow will be .
, % of the Moon is Illuminated

Today's Extremes

State Highs State Lows

Community

WunderPhotos

Upload Photos

1,890,904 photos uploaded!

WunderBlog® & News

Nearby

Air Quality

  Air Quality AQ Index Pollutant
Not available.

Snow Depth

Station Depth Elevation

Earthquake Activity

City Distance Mag. Time & Date
Minimum magnitude displayed is 2.5.

Coastal Water Temperatures

Place Temperature

Stations

Nearby Weather Stations

Station Location Temp. Windchill Dew Point Humidity Wind Precip. Elev Updated Type
                   

Watches & Warnings

Wind Advisory
Issued: 11:05 AM PST Feb. 5, 2016 – National Weather Service

... Wind Advisory remains in effect until 2 PM PST Saturday...

* winds... areas of northeast winds 20 to 30 mph with local gusts
to 50 mph.

* Impacts... gusty winds will make driving difficult... especially
for drivers of high profile vehicles.

Precautionary/preparedness actions...

When driving... use extra caution. Be prepared for sudden gusty
cross winds.